Time;durP1;ratioP1;P1;durP2;ratioP2;P2;SDS_P1;SDS_P2;PMS_P1;PMS_P2;Temp;Humidity;BMP_temperature;BMP_pressure;BME280_temperature;BME280_humidity;BME280_pressure;Samples;Min_cycle;Max_cycle;Signal;HPM_P1;HPM_P2
2021/12/10 13:02:57;;;;;;;1.83;1.73;;;14.70;75.30;;;;;;2299383;62;30134;-90
2021/12/10 13:05:50;;;;;;;1.73;1.63;;;14.60;74.70;;;;;;2276760;62;30502;-91
2021/12/10 13:08:22;;;;;;;2.08;1.50;;;14.60;76.10;;;;;;2291300;62;29903;-90
2021/12/10 13:11:00;;;;;;;2.55;1.83;;;14.60;76.90;;;;;;2283497;62;30163;-84
2021/12/10 13:13:36;;;;;;;1.92;1.50;;;14.50;77.60;;;;;;2284755;62;30360;-85
2021/12/10 13:16:07;;;;;;;1.77;1.67;;;14.50;78.10;;;;;;2284247;62;30214;-85
2021/12/10 13:18:34;;;;;;;2.47;1.63;;;14.50;78.80;;;;;;2277785;62;29986;-76
2021/12/10 13:20:59;;;;;;;2.60;1.92;;;14.50;79.20;;;;;;2283291;62;29986;-76
2021/12/10 13:23:26;;;;;;;1.80;1.70;;;14.40;79.50;;;;;;2291058;62;30045;-75
2021/12/10 13:25:54;;;;;;;1.33;1.23;;;14.40;79.70;;;;;;2283743;62;29997;-74
2021/12/10 13:28:20;;;;;;;1.75;1.45;;;14.40;79.80;;;;;;2290848;62;30165;-75
2021/12/10 13:30:56;;;;;;;1.92;1.48;;;14.40;79.90;;;;;;2283758;62;30708;-74
2021/12/10 13:33:24;;;;;;;2.13;1.38;;;14.40;79.70;;;;;;2291017;62;30045;-75
2021/12/10 13:35:51;;;;;;;1.60;1.50;;;14.40;80.00;;;;;;2283320;62;30152;-74
2021/12/10 13:38:19;;;;;;;1.55;1.45;;;14.40;80.10;;;;;;2289696;62;32486;-74
2021/12/10 13:40:45;;;;;;;1.50;1.40;;;14.40;80.10;;;;;;2275656;62;30353;-75
2021/12/10 13:43:14;;;;;;;3.88;1.75;;;14.30;79.90;;;;;;2276511;62;30152;-75
2021/12/10 13:45:42;;;;;;;1.70;1.60;;;14.40;80.10;;;;;;2282639;62;30125;-75
2021/12/10 13:48:13;;;;;;;3.17;1.73;;;14.40;79.90;;;;;;2290039;62;30056;-76
2021/12/10 13:50:50;;;;;;;1.90;1.70;;;14.40;79.90;;;;;;2290816;62;31274;-75
2021/12/10 13:53:28;;;;;;;1.67;1.58;;;14.40;79.00;;;;;;2283462;62;29991;-75
2021/12/10 13:55:57;;;;;;;7.38;1.70;;;14.30;79.60;;;;;;2283278;62;30098;-75
2021/12/10 13:58:27;;;;;;;4.75;2.75;;;14.40;79.50;;;;;;2283183;62;30012;-75
2021/12/10 14:00:55;;;;;;;3.63;2.95;;;14.30;78.70;;;;;;2283611;62;30877;-75
2021/12/10 14:03:46;;;;;;;3.67;2.70;;;14.30;78.40;;;;;;2290549;62;29929;-74
2021/12/10 14:06:18;;;;;;;2.88;2.53;;;14.20;76.50;;;;;;2290810;62;30091;-77
2021/12/10 14:08:46;;;;;;;5.85;2.35;;;14.20;78.30;;;;;;2276910;62;30007;-75
2021/12/10 14:11:41;;;;;;;6.65;2.88;;;14.20;77.90;;;;;;2290683;62;30498;-73
2021/12/10 14:14:06;;;;;;;4.82;2.85;;;14.20;77.40;;;;;;2279421;62;30584;-74
2021/12/10 14:16:56;;;;;;;3.60;3.30;;;14.10;77.30;;;;;;2285254;62;29881;-75
2021/12/10 14:19:47;;;;;;;3.95;3.20;;;14.10;75.10;;;;;;2278160;62;29983;-75
2021/12/10 14:22:14;;;;;;;5.45;2.95;;;14.00;76.50;;;;;;2285362;62;30200;-75
2021/12/10 14:24:49;;;;;;;4.72;3.03;;;14.00;76.90;;;;;;2285285;62;30548;-74
2021/12/10 14:27:15;;;;;;;3.60;2.80;;;14.00;76.20;;;;;;2278115;62;30267;-74
2021/12/10 14:29:40;;;;;;;4.03;2.60;;;14.00;76.60;;;;;;2285214;62;30220;-74
2021/12/10 14:32:23;;;;;;;5.57;2.88;;;14.00;76.40;;;;;;2277747;62;30717;-75
2021/12/10 14:35:23;;;;;;;6.75;3.08;;;14.00;75.20;;;;;;2278044;62;30548;-72
2021/12/10 14:38:05;;;;;;;3.25;2.90;;;14.00;74.70;;;;;;2277499;62;29904;-72
2021/12/10 14:40:38;;;;;;;3.28;2.40;;;14.00;75.20;;;;;;2278107;62;30044;-72
2021/12/10 14:43:11;;;;;;;4.05;3.22;;;14.00;75.80;;;;;;2277856;62;30280;-72
2021/12/10 14:46:14;;;;;;;3.63;3.33;;;14.00;76.90;;;;;;2285167;62;30172;-72
2021/12/10 14:49:00;;;;;;;4.43;4.03;;;14.00;74.50;;;;;;2243706;63;30256;-72
2021/12/10 14:51:26;;;;;;;4.38;3.10;;;13.90;76.00;;;;;;2282869;62;30179;-72
2021/12/10 14:54:01;;;;;;;3.80;2.80;;;13.90;79.00;;;;;;2271151;62;30095;-73
2021/12/10 14:56:39;;;;;;;4.15;2.90;;;13.90;79.70;;;;;;2278243;62;30538;-75
2021/12/10 14:59:06;;;;;;;2.97;2.15;;;13.90;78.70;;;;;;2270948;62;30247;-71
2021/12/10 15:01:34;;;;;;;3.50;2.20;;;14.00;79.70;;;;;;2285059;62;30215;-72
2021/12/10 15:04:04;;;;;;;2.20;2.00;;;14.00;79.40;;;;;;2271118;62;30776;-73
2021/12/10 15:06:31;;;;;;;3.47;1.70;;;14.20;79.00;;;;;;2271016;62;30722;-72
2021/12/10 15:09:00;;;;;;;3.20;1.80;;;14.30;78.70;;;;;;2285225;62;30243;-72
2021/12/10 15:11:32;;;;;;;1.60;1.50;;;14.40;78.30;;;;;;2277600;62;30094;-71
2021/12/10 15:14:16;;;;;;;2.38;1.90;;;14.50;77.60;;;;;;2284888;62;30060;-71
2021/12/10 15:16:46;;;;;;;1.75;1.50;;;14.50;76.10;;;;;;2277938;62;30651;-70
2021/12/10 15:19:15;;;;;;;2.50;1.52;;;14.60;77.10;;;;;;2271133;62;30277;-72
2021/12/10 15:21:40;;;;;;;1.80;1.42;;;14.60;76.80;;;;;;2277849;62;30267;-72
2021/12/10 15:24:18;;;;;;;2.13;1.50;;;14.70;76.50;;;;;;2284797;62;30222;-72
2021/12/10 15:26:47;;;;;;;2.35;1.50;;;14.70;75.60;;;;;;2284661;62;30065;-71
2021/12/10 15:29:35;;;;;;;1.65;1.45;;;14.70;76.00;;;;;;2278089;62;30023;-72
2021/12/10 15:32:25;;;;;;;1.70;1.33;;;14.80;75.00;;;;;;2277937;62;29945;-72
2021/12/10 15:34:55;;;;;;;2.30;1.63;;;14.80;75.40;;;;;;2277144;62;29980;-73
2021/12/10 15:37:23;;;;;;;2.15;1.40;;;14.80;75.20;;;;;;2285005;62;30669;-72
2021/12/10 15:39:53;;;;;;;1.30;1.20;;;14.80;75.20;;;;;;2277454;62;30073;-72
2021/12/10 15:42:21;;;;;;;1.67;1.50;;;14.80;75.00;;;;;;2277560;62;30138;-77
2021/12/10 15:44:47;;;;;;;1.73;1.60;;;14.90;74.80;;;;;;2277686;62;30239;-74
2021/12/10 15:47:13;;;;;;;1.70;1.60;;;14.90;74.50;;;;;;2285092;62;30038;-73
2021/12/10 15:49:39;;;;;;;1.60;1.50;;;14.90;74.10;;;;;;2285019;62;30249;-73
2021/12/10 15:52:08;;;;;;;1.70;1.60;;;14.80;73.90;;;;;;2271038;62;30365;-74
2021/12/10 15:54:45;;;;;;;1.60;1.50;;;14.80;73.80;;;;;;2284833;62;30068;-73
2021/12/10 15:57:15;;;;;;;3.28;1.80;;;14.90;73.70;;;;;;2278226;62;30410;-76
2021/12/10 15:59:44;;;;;;;1.70;1.60;;;14.80;73.60;;;;;;2273256;62;30294;-77
2021/12/10 16:02:19;;;;;;;1.52;1.40;;;14.90;73.60;;;;;;2275599;62;30257;-76
2021/12/10 16:04:47;;;;;;;1.63;1.52;;;15.00;73.40;;;;;;2284840;62;31103;-76
2021/12/10 16:07:18;;;;;;;2.65;1.90;;;15.20;73.20;;;;;;2277558;62;30885;-75
2021/12/10 16:09:45;;;;;;;1.88;1.50;;;15.30;73.10;;;;;;2284748;62;30042;-75
2021/12/10 16:12:22;;;;;;;1.58;1.48;;;15.40;72.90;;;;;;2277521;62;30152;-75
2021/12/10 16:14:55;;;;;;;2.17;1.73;;;15.50;72.70;;;;;;2278092;62;30100;-77
2021/12/10 16:17:21;;;;;;;1.90;1.77;;;15.60;72.60;;;;;;2284203;62;30290;-73
2021/12/10 16:19:48;;;;;;;12.00;2.13;;;15.70;72.30;;;;;;2275689;62;30311;-73
2021/12/10 16:22:17;;;;;;;1.70;1.60;;;15.80;72.30;;;;;;2272425;62;29939;-74
2021/12/10 16:24:47;;;;;;;5.32;1.80;;;15.80;72.10;;;;;;2283524;62;30796;-73
2021/12/10 16:27:22;;;;;;;3.22;1.77;;;15.90;72.20;;;;;;2276970;62;30198;-72
2021/12/10 16:29:51;;;;;;;2.85;2.17;;;15.90;72.20;;;;;;2277469;62;30039;-72
2021/12/10 16:32:20;;;;;;;2.08;1.88;;;16.00;72.10;;;;;;2284518;62;30089;-72
2021/12/10 16:34:47;;;;;;;2.47;1.80;;;16.10;72.00;;;;;;2270410;62;30198;-72
2021/12/10 16:37:15;;;;;;;4.20;2.28;;;16.10;72.00;;;;;;2284310;62;30628;-73
2021/12/10 16:39:44;;;;;;;2.17;1.90;;;16.20;71.90;;;;;;2276603;62;30217;-72
2021/12/10 16:42:13;;;;;;;2.83;2.10;;;16.20;71.80;;;;;;2269717;62;30199;-73
2021/12/10 16:44:41;;;;;;;1.98;1.85;;;16.30;71.70;;;;;;2284112;62;30897;-73
2021/12/10 16:47:13;;;;;;;3.25;2.47;;;16.30;71.60;;;;;;2277079;62;30263;-72
2021/12/10 16:49:38;;;;;;;;;;;16.30;71.60;;;;;;2277734;62;30059;-73
2021/12/10 16:52:20;;;;;;;2.47;2.28;;;16.30;71.60;;;;;;2277102;62;30200;-73
2021/12/10 16:54:45;;;;;;;3.25;2.47;;;16.30;71.50;;;;;;2277186;62;30227;-72
2021/12/10 16:57:20;;;;;;;3.55;2.33;;;16.40;71.50;;;;;;2284589;62;29969;-72
2021/12/10 16:59:49;;;;;;;4.32;2.80;;;16.40;71.40;;;;;;2284292;62;29924;-72
2021/12/10 17:02:19;;;;;;;2.88;2.60;;;16.40;71.40;;;;;;2276897;62;30130;-71
2021/12/10 17:04:52;;;;;;;3.63;2.60;;;16.40;71.30;;;;;;2284195;62;30780;-72
2021/12/10 17:07:23;;;;;;;3.13;2.60;;;16.40;71.20;;;;;;2277209;62;30684;-72
2021/12/10 17:09:51;;;;;;;3.60;2.83;;;16.40;71.20;;;;;;2284030;62;30279;-72
2021/12/10 17:12:19;;;;;;;4.10;3.03;;;16.40;71.20;;;;;;2283940;62;30189;-73
2021/12/10 17:14:50;;;;;;;5.82;3.00;;;16.40;71.10;;;;;;2276826;62;30998;-72
2021/12/10 17:17:22;;;;;;;3.50;2.75;;;16.40;71.00;;;;;;2277277;62;30481;-73
2021/12/10 17:19:50;;;;;;;3.22;2.88;;;16.40;71.10;;;;;;2269201;62;30102;-74
2021/12/10 17:22:20;;;;;;;3.58;2.95;;;16.50;71.10;;;;;;2268727;62;30496;-73
2021/12/10 17:24:48;;;;;;;3.83;3.17;;;16.40;71.00;;;;;;2275874;62;30241;-72
2021/12/10 17:27:17;;;;;;;4.07;3.00;;;16.50;71.00;;;;;;2268608;62;30383;-73
2021/12/10 17:29:45;;;;;;;3.58;2.88;;;16.50;71.00;;;;;;2276047;62;30267;-72
2021/12/10 17:32:16;;;;;;;4.13;3.20;;;16.50;71.00;;;;;;2268609;62;30298;-72
2021/12/10 17:34:46;;;;;;;3.20;2.90;;;16.50;71.00;;;;;;2275704;62;30050;-75
2021/12/10 17:37:15;;;;;;;3.28;2.92;;;16.50;71.00;;;;;;2270344;62;30177;-72
2021/12/10 17:39:44;;;;;;;4.10;3.13;;;16.50;71.10;;;;;;2275938;62;30157;-74
2021/12/10 17:42:12;;;;;;;4.70;3.22;;;16.40;71.00;;;;;;2283968;62;30073;-74
2021/12/10 17:44:39;;;;;;;4.40;3.10;;;16.50;71.00;;;;;;2284130;62;30743;-74
2021/12/10 17:47:20;;;;;;;3.30;3.00;;;16.50;71.00;;;;;;2276587;62;30363;-73
2021/12/10 17:49:48;;;;;;;3.33;3.00;;;16.40;70.90;;;;;;2285506;62;30117;-74
2021/12/10 17:52:21;;;;;;;4.97;3.80;;;16.40;70.90;;;;;;2278182;62;30360;-74
2021/12/10 17:54:49;;;;;;;4.57;3.50;;;16.40;70.90;;;;;;2271355;62;30142;-74
2021/12/10 17:57:22;;;;;;;2.95;2.65;;;16.40;70.90;;;;;;2285406;62;30256;-73
2021/12/10 17:59:51;;;;;;;5.28;2.95;;;16.40;70.80;;;;;;2278047;62;30044;-74
2021/12/10 18:02:22;;;;;;;3.80;3.40;;;16.40;70.80;;;;;;2284964;62;30319;-74
2021/12/10 18:04:49;;;;;;;3.72;3.35;;;16.40;70.80;;;;;;2278036;62;30809;-81
2021/12/10 18:07:15;;;;;;;4.88;3.60;;;16.40;70.70;;;;;;2284485;62;30358;-84
2021/12/10 18:09:46;;;;;;;3.35;3.05;;;16.40;70.70;;;;;;2270402;62;30432;-80
2021/12/10 18:12:19;;;;;;;3.72;3.25;;;16.40;70.60;;;;;;2271038;62;30174;-78
2021/12/10 18:14:54;;;;;;;3.78;3.22;;;16.40;70.50;;;;;;2277372;62;30272;-77
2021/12/10 18:17:26;;;;;;;4.75;3.38;;;16.40;70.50;;;;;;2277516;62;30653;-75
2021/12/10 18:19:58;;;;;;;3.75;2.70;;;16.40;70.60;;;;;;2277842;62;30179;-76
2021/12/10 18:22:25;;;;;;;5.20;3.08;;;16.40;70.60;;;;;;2285187;62;30141;-84
2021/12/10 18:24:58;;;;;;;4.03;3.40;;;16.50;70.70;;;;;;2269782;62;30763;-77
2021/12/10 18:27:26;;;;;;;5.00;3.58;;;16.50;70.80;;;;;;2282769;62;30009;-80
2021/12/10 18:29:52;;;;;;;4.13;3.20;;;16.60;70.80;;;;;;2268898;62;30174;-80
2021/12/10 18:32:21;;;;;;;4.75;3.28;;;16.60;70.80;;;;;;2283856;62;30243;-81
2021/12/10 18:34:49;;;;;;;6.40;3.40;;;16.60;70.80;;;;;;2276930;62;30075;-80
2021/12/10 18:37:19;;;;;;;5.75;3.40;;;16.70;70.80;;;;;;2276456;62;30515;-78
2021/12/10 18:39:50;;;;;;;5.68;3.33;;;16.70;70.70;;;;;;2275665;62;29976;-78
2021/12/10 18:42:29;;;;;;;5.03;3.47;;;16.70;70.70;;;;;;2284482;62;30208;-78
2021/12/10 18:45:05;;;;;;;5.82;3.55;;;16.70;70.60;;;;;;2275370;62;30761;-79
2021/12/10 18:47:35;;;;;;;5.03;3.67;;;16.70;70.50;;;;;;2280316;62;34760;-78
2021/12/10 18:50:15;;;;;;;6.57;3.80;;;16.70;70.50;;;;;;2283403;62;30192;-81
2021/12/10 18:52:42;;;;;;;8.27;3.83;;;16.70;70.50;;;;;;2276718;62;30455;-78
2021/12/10 18:55:09;;;;;;;5.03;3.17;;;16.80;70.50;;;;;;2283834;62;30781;-77
2021/12/10 18:57:36;;;;;;;7.18;3.50;;;16.80;70.40;;;;;;2269374;62;30393;-79
2021/12/10 19:00:35;;;;;;;5.22;3.53;;;16.80;70.50;;;;;;2276853;62;30065;-79
2021/12/10 19:03:01;;;;;;;6.65;3.75;;;16.80;70.50;;;;;;2280088;62;30127;-78
2021/12/10 19:05:46;;;;;;;5.57;3.58;;;16.90;70.60;;;;;;2277250;62;30450;-78
2021/12/10 19:08:15;;;;;;;7.20;2.90;;;16.90;70.50;;;;;;2277644;62;30355;-79
2021/12/10 19:10:49;;;;;;;5.47;3.30;;;16.90;70.50;;;;;;2277699;62;30239;-78
2021/12/10 19:13:19;;;;;;;;;;;17.00;70.50;;;;;;2278024;62;30049;-78
2021/12/10 19:15:58;;;;;;;3.47;3.08;;;17.00;70.60;;;;;;2277776;62;30279;-76
2021/12/10 19:18:33;;;;;;;4.45;2.70;;;17.10;70.50;;;;;;2277524;62;30056;-77
2021/12/10 19:21:03;;;;;;;3.63;2.80;;;17.20;70.40;;;;;;2277688;62;30311;-75
2021/12/10 19:23:44;;;;;;;2.90;2.60;;;17.20;70.40;;;;;;2277431;62;30050;-76
2021/12/10 19:26:11;;;;;;;3.53;2.88;;;17.30;70.30;;;;;;2281821;62;30085;-76
2021/12/10 19:28:41;;;;;;;3.45;2.90;;;17.30;70.20;;;;;;2283807;62;31365;-75
2021/12/10 19:31:12;;;;;;;3.95;2.95;;;17.30;70.10;;;;;;2276620;62;30087;-75
2021/12/10 19:33:45;;;;;;;3.60;2.88;;;17.30;70.00;;;;;;2269436;62;30071;-76
2021/12/10 19:36:19;;;;;;;2.97;2.67;;;17.30;70.00;;;;;;2269589;62;30102;-76
2021/12/10 19:39:02;;;;;;;3.35;2.60;;;17.30;69.80;;;;;;2269592;62;30211;-76
2021/12/10 19:41:34;;;;;;;4.00;3.13;;;17.40;69.80;;;;;;2276362;62;30133;-77
2021/12/10 19:44:04;;;;;;;3.17;2.60;;;17.30;69.80;;;;;;2269427;62;30120;-76
2021/12/10 19:46:36;;;;;;;2.80;2.60;;;17.30;69.80;;;;;;2268847;62;29970;-76
2021/12/10 19:49:13;;;;;;;2.80;2.60;;;17.30;69.70;;;;;;2262335;62;30774;-76
2021/12/10 19:51:41;;;;;;;3.33;2.67;;;17.30;69.70;;;;;;2276561;62;30035;-76
2021/12/10 19:54:12;;;;;;;5.20;3.95;;;17.30;69.80;;;;;;2276393;62;30079;-76
2021/12/10 19:56:49;;;;;;;3.80;2.95;;;17.30;69.70;;;;;;2268971;62;30191;-76
2021/12/10 19:59:38;;;;;;;5.38;3.58;;;17.30;69.70;;;;;;2276508;62;30470;-76
2021/12/10 20:02:17;;;;;;;3.60;2.97;;;17.30;69.50;;;;;;2267494;62;30065;-77
2021/12/10 20:05:09;;;;;;;2.90;2.70;;;17.30;69.60;;;;;;2267784;62;30329;-76
2021/12/10 20:07:36;;;;;;;;;;;17.30;69.50;;;;;;2269278;62;30171;-77
2021/12/10 20:10:14;;;;;;;3.15;2.78;;;17.30;69.50;;;;;;2268474;62;30220;-76
2021/12/10 20:12:48;;;;;;;3.30;3.00;;;17.20;69.80;;;;;;2267725;62;30232;-76
2021/12/10 20:15:25;;;;;;;3.40;2.83;;;17.20;69.80;;;;;;2267512;62;30241;-76
2021/12/10 20:17:57;;;;;;;6.03;2.78;;;17.20;69.70;;;;;;2268203;62;31073;-76
2021/12/10 20:20:26;;;;;;;;;;;17.20;69.70;;;;;;2261534;62;30514;-74
2021/12/10 20:22:55;;;;;;;5.47;3.17;;;17.20;69.70;;;;;;2268198;62;30050;-75
2021/12/10 20:25:24;;;;;;;3.22;2.92;;;17.20;69.80;;;;;;2267448;62;30475;-76
2021/12/10 20:28:09;;;;;;;3.60;3.30;;;17.20;69.70;;;;;;2267833;62;32172;-76
2021/12/10 20:30:38;;;;;;;3.33;3.03;;;17.30;69.50;;;;;;2267995;62;30092;-75
2021/12/10 20:33:10;;;;;;;3.53;3.00;;;17.30;69.50;;;;;;2268355;62;30239;-75
2021/12/10 20:35:44;;;;;;;3.15;2.95;;;17.30;69.50;;;;;;2274965;62;30808;-75
2021/12/10 20:38:17;;;;;;;3.60;3.20;;;17.30;69.30;;;;;;2275783;62;30309;-75
2021/12/10 20:40:50;;;;;;;3.85;3.47;;;17.30;69.30;;;;;;2269057;62;30611;-75
2021/12/10 20:43:20;;;;;;;3.28;3.00;;;17.30;69.30;;;;;;2275422;62;30204;-78
2021/12/10 20:45:56;;;;;;;3.08;2.88;;;17.30;69.30;;;;;;2276426;62;29955;-77
2021/12/10 20:48:22;;;;;;;3.65;3.33;;;17.40;69.10;;;;;;2275656;62;31191;-77
2021/12/10 20:50:58;;;;;;;3.42;3.13;;;17.40;69.20;;;;;;2275389;62;30524;-76
2021/12/10 20:53:33;;;;;;;3.63;3.33;;;17.40;69.10;;;;;;2275793;62;30151;-76
2021/12/10 20:56:04;;;;;;;3.97;3.58;;;17.40;69.10;;;;;;2276374;62;30065;-77
2021/12/10 20:58:33;;;;;;;4.68;3.47;;;17.40;69.00;;;;;;2275618;62;30314;-76
2021/12/10 21:01:11;;;;;;;3.38;3.08;;;17.40;69.00;;;;;;2276257;62;30509;-77
2021/12/10 21:03:42;;;;;;;4.38;3.67;;;17.40;68.90;;;;;;2261070;62;30943;-76
2021/12/10 21:06:10;;;;;;;;;;;17.40;69.00;;;;;;2267724;62;30027;-76
2021/12/10 21:08:38;;;;;;;4.57;3.50;;;17.40;68.70;;;;;;2268107;62;31194;-76
2021/12/10 21:11:23;;;;;;;3.55;3.25;;;17.40;69.00;;;;;;2267145;62;30195;-76
2021/12/10 21:13:56;;;;;;;3.85;3.55;;;17.40;68.90;;;;;;2267275;62;30096;-77
2021/12/10 21:16:24;;;;;;;3.50;3.20;;;17.40;68.90;;;;;;2260863;62;30120;-77
2021/12/10 21:18:56;;;;;;;4.07;3.20;;;17.40;68.90;;;;;;2267738;62;30090;-78
2021/12/10 21:21:34;;;;;;;3.88;3.55;;;17.40;68.90;;;;;;2267864;62;30017;-77
2021/12/10 21:24:21;;;;;;;3.83;3.53;;;17.40;69.60;;;;;;2268784;62;30006;-78
2021/12/10 21:26:59;;;;;;;3.85;3.47;;;17.40;68.70;;;;;;2268794;62;30155;-77
2021/12/10 21:29:32;;;;;;;4.05;3.65;;;17.40;68.70;;;;;;2259377;62;30631;-79
2021/12/10 21:32:04;;;;;;;4.30;3.90;;;17.40;68.80;;;;;;2267386;62;30207;-81
2021/12/10 21:34:39;;;;;;;3.90;3.60;;;17.40;68.70;;;;;;2268365;62;30286;-78
2021/12/10 21:39:48;;;;;;;3.75;3.45;;;17.40;68.70;;;;;;2267278;62;31107;-76
2021/12/10 21:42:18;;;;;;;3.75;3.25;;;17.40;68.40;;;;;;2267364;62;30231;-77
2021/12/10 21:45:42;;;;;;;4.20;3.85;;;17.40;68.40;;;;;;2267343;62;30128;-77
2021/12/10 21:48:10;;;;;;;4.20;3.80;;;17.40;68.30;;;;;;2242491;63;30072;-75
2021/12/10 21:50:43;;;;;;;4.00;3.60;;;17.40;68.40;;;;;;2262968;62;30775;-77
2021/12/10 21:53:13;;;;;;;3.72;3.42;;;17.40;68.30;;;;;;2268056;62;30211;-75
2021/12/10 21:55:43;;;;;;;4.22;3.80;;;17.40;68.30;;;;;;2268056;62;30203;-76
2021/12/10 21:58:09;;;;;;;4.20;3.58;;;17.40;68.30;;;;;;2267543;62;30341;-77
2021/12/10 22:00:39;;;;;;;4.32;3.80;;;17.50;68.30;;;;;;2267789;62;30011;-78
2021/12/10 22:03:11;;;;;;;4.25;3.85;;;17.40;68.20;;;;;;2273425;62;30661;-76
2021/12/10 22:05:38;;;;;;;;;;;17.40;68.10;;;;;;2276532;62;30018;-75
2021/12/10 22:08:11;;;;;;;3.92;3.63;;;17.40;68.00;;;;;;2275877;62;30150;-78
2021/12/10 22:10:48;;;;;;;4.75;4.13;;;17.50;68.30;;;;;;2275324;62;30197;-76
2021/12/10 22:13:26;;;;;;;5.03;3.58;;;17.40;68.10;;;;;;2275261;62;30313;-76
2021/12/10 22:16:00;;;;;;;4.40;4.03;;;17.40;68.20;;;;;;2275291;62;30341;-75
2021/12/10 22:18:48;;;;;;;4.22;3.83;;;17.40;68.20;;;;;;2276029;62;30448;-74
2021/12/10 22:21:19;;;;;;;4.57;4.18;;;17.40;68.20;;;;;;2275410;62;30257;-76
2021/12/10 22:23:49;;;;;;;5.75;4.40;;;17.40;68.30;;;;;;2276037;62;31204;-75
2021/12/10 22:26:16;;;;;;;4.75;4.30;;;17.40;68.30;;;;;;2275714;62;30460;-75
2021/12/10 22:28:51;;;;;;;4.57;4.18;;;17.40;68.30;;;;;;2275896;62;30235;-75
2021/12/10 22:31:25;;;;;;;5.13;4.63;;;17.40;68.30;;;;;;2276209;62;30421;-75
2021/12/10 22:33:52;;;;;;;4.82;4.43;;;17.40;68.30;;;;;;2275564;62;30136;-76
2021/12/10 22:36:32;;;;;;;4.68;4.28;;;17.40;68.30;;;;;;2275701;62;30057;-75
2021/12/10 22:39:04;;;;;;;5.28;4.32;;;17.40;68.30;;;;;;2275906;62;30096;-75
2021/12/10 22:41:36;;;;;;;5.55;4.70;;;17.40;68.30;;;;;;2275529;62;30106;-75
2021/12/10 22:44:14;;;;;;;5.60;5.00;;;17.30;69.00;;;;;;2275444;62;30342;-75
2021/12/10 22:46:41;;;;;;;4.97;4.53;;;17.30;68.30;;;;;;2275529;62;30102;-76
2021/12/10 22:49:21;;;;;;;5.63;4.63;;;17.30;68.30;;;;;;2275914;62;30229;-76
2021/12/10 22:52:01;;;;;;;4.85;4.40;;;17.30;68.30;;;;;;2275402;62;30742;-75
2021/12/10 22:54:35;;;;;;;4.40;4.00;;;17.30;68.20;;;;;;2275443;62;30176;-75
2021/12/10 22:57:04;;;;;;;5.22;4.78;;;17.30;68.20;;;;;;2275139;62;30130;-77
2021/12/10 22:59:33;;;;;;;5.35;4.60;;;17.30;68.30;;;;;;2261749;62;30287;-78
2021/12/10 23:02:10;;;;;;;6.50;5.13;;;17.30;68.20;;;;;;2276160;62;30180;-77
2021/12/10 23:04:53;;;;;;;5.18;4.70;;;17.30;68.10;;;;;;2281087;62;30729;-77
2021/12/10 23:10:24;;;;;;;5.47;4.47;;;17.30;68.10;;;;;;2283241;62;30132;-79
2021/12/10 23:12:58;;;;;;;4.45;4.05;;;17.30;68.10;;;;;;2275435;62;30268;-79
2021/12/10 23:15:30;;;;;;;5.00;4.30;;;17.30;68.20;;;;;;2273824;62;30915;-79
2021/12/10 23:18:12;;;;;;;4.47;4.07;;;17.30;68.10;;;;;;2276354;62;30305;-78
2021/12/10 23:20:44;;;;;;;4.35;4.03;;;17.30;68.10;;;;;;2276850;62;30674;-77
2021/12/10 23:23:09;;;;;;;5.35;4.55;;;17.30;68.10;;;;;;2284014;62;30886;-77
2021/12/10 23:25:47;;;;;;;5.50;4.20;;;17.30;68.10;;;;;;2283582;62;31053;-76
2021/12/10 23:28:18;;;;;;;4.15;3.75;;;17.30;68.10;;;;;;2283653;62;30055;-78
2021/12/10 23:30:56;;;;;;;4.30;3.83;;;17.30;68.00;;;;;;2276193;62;30164;-76
2021/12/10 23:33:31;;;;;;;4.10;3.70;;;17.30;68.00;;;;;;2283677;62;30199;-77
2021/12/10 23:36:05;;;;;;;3.97;3.67;;;17.30;68.00;;;;;;2269053;62;30250;-78
2021/12/10 23:38:39;;;;;;;4.03;3.40;;;17.20;68.00;;;;;;2276097;62;30283;-77
2021/12/10 23:41:10;;;;;;;4.32;3.38;;;17.30;68.00;;;;;;2276783;62;30149;-76
2021/12/10 23:43:57;;;;;;;4.15;3.33;;;17.20;68.10;;;;;;2283849;62;30976;-76
2021/12/10 23:46:34;;;;;;;3.88;3.50;;;17.20;67.90;;;;;;2275667;62;30752;-74
2021/12/10 23:49:22;;;;;;;3.40;3.10;;;17.20;68.00;;;;;;2270115;62;30112;-74
